Time;durP1;ratioP1;P1;durP2;ratioP2;P2;SDS_P1;SDS_P2;PMS_P1;PMS_P2;Temp;Humidity;BMP_temperature;BMP_pressure;BME280_temperature;BME280_humidity;BME280_pressure;Samples;Min_cycle;Max_cycle;Signal;HPM_P1;HPM_P2
2022/03/07 00:01:29;;;;;;;4.93;3.73;;;;;;;-1.58;95.12;101889.69;4995414;28;20392;-78
2022/03/07 00:03:56;;;;;;;6.73;4.00;;;;;;;-1.63;95.12;101888.56;5010997;28;20048;-77
2022/03/07 00:06:23;;;;;;;5.63;4.20;;;;;;;-1.53;94.73;101894.28;5026056;28;20037;-77
2022/03/07 00:08:50;;;;;;;4.90;3.67;;;;;;;-1.63;94.76;101897.25;5013557;28;20090;-77
2022/03/07 00:11:17;;;;;;;6.53;3.87;;;;;;;-1.74;95.47;101888.06;5013528;28;20045;-77
2022/03/07 00:13:44;;;;;;;5.27;3.70;;;;;;;-1.80;95.75;101895.53;5013086;28;20119;-77
2022/03/07 00:16:11;;;;;;;5.20;4.07;;;;;;;-1.83;95.36;101891.09;5043754;28;20056;-77
2022/03/07 00:18:38;;;;;;;5.87;3.60;;;;;;;-1.89;95.27;101884.72;5029409;28;20033;-77
2022/03/07 00:21:06;;;;;;;6.97;3.90;;;;;;;-1.93;95.66;101883.69;5031916;28;20045;-77
2022/03/07 00:23:34;;;;;;;6.20;4.10;;;;;;;-1.97;95.45;101897.28;5026961;28;20044;-77
2022/03/07 00:26:04;;;;;;;4.73;3.80;;;;;;;-2.07;96.14;101892.47;5014810;28;20053;-77
2022/03/07 00:28:30;;;;;;;5.53;3.67;;;;;;;-2.13;96.28;101890.44;5016709;28;20090;-77
2022/03/07 00:30:57;;;;;;;6.27;4.10;;;;;;;-2.15;96.33;101884.31;5047796;28;20450;-77
2022/03/07 00:33:24;;;;;;;5.87;4.13;;;;;;;-2.13;96.61;101889.56;5015988;28;20068;-78
2022/03/07 00:35:51;;;;;;;5.40;3.90;;;;;;;-2.11;95.35;101893.09;5001072;28;22319;-78
2022/03/07 00:38:17;;;;;;;6.03;4.23;;;;;;;-2.16;96.16;101897.19;5007037;28;20589;-78
2022/03/07 00:40:44;;;;;;;7.37;3.93;;;;;;;-2.23;97.35;101888.22;5016012;28;20098;-78
2022/03/07 00:43:11;;;;;;;7.77;5.23;;;;;;;-2.27;97.93;101892.34;5008147;28;20045;-78
2022/03/07 00:45:37;;;;;;;6.20;4.07;;;;;;;-2.31;98.49;101886.94;5026163;28;20435;-78
2022/03/07 00:48:04;;;;;;;6.23;4.67;;;;;;;-2.35;98.43;101888.47;5016589;28;20538;-78
2022/03/07 00:50:31;;;;;;;6.20;3.77;;;;;;;-2.31;98.60;101886.94;5014636;28;20044;-78
2022/03/07 00:52:58;;;;;;;5.20;4.30;;;;;;;-2.19;97.76;101884.06;5033813;28;20048;-78
2022/03/07 00:55:24;;;;;;;5.60;4.40;;;;;;;-2.33;97.35;101886.84;5029002;28;20045;-78
2022/03/07 00:57:51;;;;;;;5.07;4.07;;;;;;;-2.39;98.36;101886.53;5028174;28;20037;-77
2022/03/07 01:00:19;;;;;;;6.73;4.30;;;;;;;-2.40;98.20;101886.47;5034205;28;20049;-78
2022/03/07 01:02:46;;;;;;;6.83;4.53;;;;;;;-2.46;98.87;101887.03;5032133;28;20042;-78
2022/03/07 01:05:14;;;;;;;6.23;4.50;;;;;;;-2.45;98.94;101890.50;5011476;28;20053;-78
2022/03/07 01:07:41;;;;;;;5.90;4.17;;;;;;;-2.47;99.08;101886.94;5014755;28;20045;-78
2022/03/07 01:10:07;;;;;;;6.27;4.17;;;;;;;-2.54;99.67;101888.31;5016294;28;20060;-79
2022/03/07 01:12:34;;;;;;;6.73;3.87;;;;;;;-2.59;99.23;101888.09;5011596;28;20048;-78
2022/03/07 01:15:01;;;;;;;8.27;4.53;;;;;;;-2.60;99.73;101888.03;5028951;28;20488;-78
2022/03/07 01:17:28;;;;;;;6.03;3.87;;;;;;;-2.64;100.00;101897.31;5032425;28;20106;-77
2022/03/07 01:19:55;;;;;;;7.17;4.67;;;;;;;-2.68;100.00;101892.78;5015949;28;20033;-78
2022/03/07 01:22:22;;;;;;;6.60;4.27;;;;;;;-2.67;100.00;101889.41;5012391;28;20573;-78
2022/03/07 01:24:48;;;;;;;6.30;4.40;;;;;;;-2.65;100.00;101892.06;5004294;28;20045;-79
2022/03/07 01:27:15;;;;;;;6.37;4.57;;;;;;;-2.71;100.00;101895.19;4996364;28;20091;-77
2022/03/07 01:29:42;;;;;;;7.93;4.63;;;;;;;-2.71;100.00;101891.72;5024085;28;20052;-78
2022/03/07 01:32:08;;;;;;;6.27;4.07;;;;;;;-2.71;100.00;101894.31;5027259;28;20116;-78
2022/03/07 01:34:35;;;;;;;7.50;4.83;;;;;;;-2.77;100.00;101900.06;5007399;28;20104;-78
2022/03/07 01:37:02;;;;;;;9.33;5.20;;;;;;;-2.78;100.00;101892.22;5018446;28;20037;-78
2022/03/07 01:39:36;;;;;;;9.73;5.13;;;;;;;-2.73;100.00;101893.34;5006483;28;20041;-78
2022/03/07 01:42:03;;;;;;;6.55;5.05;;;;;;;-2.76;100.00;101888.91;5006570;28;20049;-78
2022/03/07 01:44:31;;;;;;;8.80;5.30;;;;;;;-2.76;100.00;101891.50;5004549;28;20224;-77
2022/03/07 01:46:58;;;;;;;7.43;4.60;;;;;;;-2.76;100.00;101888.91;4998422;28;20511;-78
2022/03/07 01:49:26;;;;;;;6.70;4.30;;;;;;;-2.70;100.00;101884.03;5008374;28;20041;-78
2022/03/07 01:51:53;;;;;;;10.23;5.20;;;;;;;-2.73;100.00;101883.00;5026878;28;20045;-77
2022/03/07 01:54:21;;;;;;;6.33;4.43;;;;;;;-2.73;100.00;101877.84;5008181;28;20076;-77
2022/03/07 01:56:50;;;;;;;9.70;5.10;;;;;;;-2.76;100.00;101875.09;4980838;28;20064;-77
2022/03/07 01:59:21;;;;;;;8.40;4.70;;;;;;;-2.70;100.00;101871.09;5016623;28;20095;-78
2022/03/07 02:01:48;;;;;;;8.20;4.60;;;;;;;-2.80;100.00;101866.28;5014340;28;20049;-77
2022/03/07 02:04:15;;;;;;;9.40;4.60;;;;;;;-2.78;100.00;101864.66;4995907;28;20041;-78
2022/03/07 02:06:44;;;;;;;7.03;5.03;;;;;;;-2.83;100.00;101871.28;5012262;28;20052;-78
2022/03/07 02:09:11;;;;;;;6.83;4.97;;;;;;;-2.87;100.00;101859.88;4999663;28;20052;-77
2022/03/07 02:11:38;;;;;;;6.70;4.70;;;;;;;-2.90;100.00;101859.72;5029443;28;20119;-78
2022/03/07 02:14:15;;;;;;;7.87;5.13;;;;;;;-2.95;100.00;101861.16;5011822;28;20500;-77
2022/03/07 02:16:43;;;;;;;6.33;4.53;;;;;;;-2.94;100.00;101867.25;5013197;28;20041;-78
2022/03/07 02:19:10;;;;;;;7.03;5.13;;;;;;;-2.94;100.00;101857.81;5031447;28;20044;-77
2022/03/07 02:21:37;;;;;;;6.07;4.80;;;;;;;-3.04;100.00;101846.88;5003888;28;20045;-77
2022/03/07 02:24:04;;;;;;;9.27;4.80;;;;;;;-3.00;100.00;101852.28;5003279;28;20550;-78
2022/03/07 02:26:30;;;;;;;7.50;4.90;;;;;;;-3.02;100.00;101856.50;5035832;28;20458;-78
2022/03/07 02:28:57;;;;;;;7.43;5.27;;;;;;;-3.08;100.00;101843.25;5012953;28;20033;-78
2022/03/07 02:31:24;;;;;;;7.80;4.60;;;;;;;-3.06;100.00;101840.72;5017155;28;20410;-78
2022/03/07 02:33:51;;;;;;;7.70;5.80;;;;;;;-3.05;100.00;101843.41;5031076;28;20041;-78
2022/03/07 02:36:18;;;;;;;10.10;6.07;;;;;;;-2.92;100.00;101842.38;5018901;28;20041;-78
2022/03/07 02:38:45;;;;;;;9.03;5.10;;;;;;;-2.96;100.00;101836.13;5037328;28;20044;-78
2022/03/07 02:41:11;;;;;;;9.10;5.33;;;;;;;-2.97;100.00;101836.94;5039574;28;20041;-78
2022/03/07 02:43:38;;;;;;;8.10;4.63;;;;;;;-2.94;100.00;101833.66;5002869;28;20041;-78
2022/03/07 02:46:05;;;;;;;8.37;4.97;;;;;;;-3.00;100.00;101828.13;5039653;28;20033;-78
2022/03/07 02:48:32;;;;;;;7.90;5.40;;;;;;;-2.97;100.00;101834.34;4999547;28;20496;-77
2022/03/07 02:50:58;;;;;;;7.43;5.33;;;;;;;-2.88;100.00;101829.66;5017494;28;20084;-77
2022/03/07 02:53:26;;;;;;;8.97;5.50;;;;;;;-2.91;100.00;101828.63;5024581;28;20045;-78
2022/03/07 02:55:54;;;;;;;7.57;5.40;;;;;;;-2.85;100.00;101832.44;5018309;28;20033;-77
2022/03/07 02:58:21;;;;;;;9.53;5.93;;;;;;;-2.89;100.00;101827.88;5033859;28;20033;-78
2022/03/07 03:00:48;;;;;;;13.53;6.63;;;;;;;-2.86;100.00;101830.66;5013194;28;20488;-78
2022/03/07 03:03:15;;;;;;;10.07;5.63;;;;;;;-2.97;100.00;101825.72;5036159;28;20037;-77
2022/03/07 03:05:42;;;;;;;11.17;5.43;;;;;;;-2.98;100.00;101830.00;5017593;28;20041;-77
2022/03/07 03:08:08;;;;;;;11.37;5.80;;;;;;;-3.06;100.00;101820.94;5020231;28;20095;-77
2022/03/07 03:10:36;;;;;;;7.47;5.63;;;;;;;-3.11;100.00;101827.59;5015049;28;20048;-77
2022/03/07 03:13:03;;;;;;;13.50;6.07;;;;;;;-3.03;100.00;101834.00;5029850;28;20096;-78
2022/03/07 03:15:30;;;;;;;10.90;6.33;;;;;;;-3.13;100.00;101817.13;5025272;28;20029;-78
2022/03/07 03:17:57;;;;;;;13.93;7.47;;;;;;;-3.14;100.00;101820.53;5014547;28;20055;-77
2022/03/07 03:20:23;;;;;;;10.23;6.27;;;;;;;-3.19;100.00;101824.59;5014141;28;20053;-78
2022/03/07 03:22:52;;;;;;;10.70;6.47;;;;;;;-3.20;100.00;101832.22;5032056;28;20095;-78
2022/03/07 03:25:19;;;;;;;10.43;5.90;;;;;;;-3.23;100.00;101829.50;4997732;28;20041;-77
2022/03/07 03:27:45;;;;;;;11.87;6.50;;;;;;;-3.23;100.00;101825.22;5026928;28;20041;-77
2022/03/07 03:30:13;;;;;;;11.83;7.10;;;;;;;-3.34;100.00;101821.16;5009738;28;20088;-77
2022/03/07 03:32:40;;;;;;;13.77;6.93;;;;;;;-3.22;100.00;101824.41;5012487;28;20624;-76
2022/03/07 03:35:07;;;;;;;11.50;7.30;;;;;;;-3.30;100.00;101824.78;4999560;28;20041;-78
2022/03/07 03:37:35;;;;;;;10.53;7.43;;;;;;;-3.38;100.00;101829.53;5009141;28;20033;-77
2022/03/07 03:40:03;;;;;;;12.83;7.23;;;;;;;-3.35;100.00;101834.00;5007146;28;20416;-77
2022/03/07 03:42:29;;;;;;;14.03;7.50;;;;;;;-3.44;100.00;101826.66;5027461;28;20468;-77
2022/03/07 03:44:59;;;;;;;17.40;7.57;;;;;;;-3.43;100.00;101838.75;5021157;28;20747;-77
2022/03/07 03:47:26;;;;;;;15.27;8.07;;;;;;;-3.42;100.00;101836.25;5006839;28;20048;-77
2022/03/07 03:49:53;;;;;;;13.13;7.73;;;;;;;-3.43;100.00;101826.72;5032609;28;20768;-78
2022/03/07 03:52:19;;;;;;;14.80;7.47;;;;;;;-3.50;100.00;101837.53;5028920;28;20098;-77
2022/03/07 03:54:46;;;;;;;14.13;8.00;;;;;;;-3.45;100.00;101840.34;5013997;28;20084;-77
2022/03/07 03:57:13;;;;;;;16.50;7.63;;;;;;;-3.49;100.00;101841.00;5012510;28;20045;-77
2022/03/07 03:59:39;;;;;;;16.17;8.80;;;;;;;-3.52;100.00;101848.59;5016461;28;20048;-77
2022/03/07 04:02:06;;;;;;;13.53;7.90;;;;;;;-3.60;100.00;101848.16;5029233;28;20082;-78
2022/03/07 04:04:33;;;;;;;14.33;7.93;;;;;;;-3.59;100.00;101843.88;5032707;28;20468;-78
2022/03/07 04:07:00;;;;;;;12.03;7.03;;;;;;;-3.63;100.00;101841.91;5017332;28;20036;-77
2022/03/07 04:09:28;;;;;;;11.23;7.33;;;;;;;-3.63;100.00;101844.50;5000085;28;20053;-78
2022/03/07 04:11:55;;;;;;;11.10;7.80;;;;;;;-3.67;100.00;101838.28;5022995;28;20420;-77
2022/03/07 04:14:23;;;;;;;13.27;7.10;;;;;;;-3.67;100.00;101838.28;5048147;28;20052;-77
2022/03/07 04:16:53;;;;;;;13.77;7.07;;;;;;;-3.59;100.00;101839.59;5032789;28;20045;-77
2022/03/07 04:19:20;;;;;;;9.83;6.60;;;;;;;-3.69;100.00;101845.06;5011457;28;20103;-78
2022/03/07 04:21:46;;;;;;;11.07;6.80;;;;;;;-3.78;100.00;101836.81;5013445;28;20496;-77
2022/03/07 04:24:13;;;;;;;13.77;9.20;;;;;;;-3.83;100.00;101844.28;5048645;28;20048;-77
2022/03/07 04:26:41;;;;;;;14.93;8.67;;;;;;;-3.65;100.00;101840.94;5013722;28;20045;-77
2022/03/07 04:29:08;;;;;;;19.13;10.13;;;;;;;-3.71;100.00;101842.38;5032851;28;20045;-77
2022/03/07 04:31:36;;;;;;;14.93;8.67;;;;;;;-3.74;100.00;101841.31;5021599;28;20045;-78
2022/03/07 04:34:03;;;;;;;21.43;10.40;;;;;;;-3.74;100.00;101842.22;5017776;28;20041;-79
2022/03/07 04:36:30;;;;;;;17.67;9.97;;;;;;;-3.86;100.00;101845.81;5000151;28;20094;-77
2022/03/07 04:38:57;;;;;;;22.00;11.90;;;;;;;-3.95;100.00;101846.19;5017830;28;20048;-78
2022/03/07 04:41:24;;;;;;;21.53;11.37;;;;;;;-3.86;100.00;101848.41;5024413;28;20053;-76
2022/03/07 04:43:50;;;;;;;22.20;12.17;;;;;;;-3.87;100.00;101850.06;5006680;28;20068;-79
2022/03/07 04:46:17;;;;;;;25.23;13.63;;;;;;;-3.63;100.00;101853.13;5013063;28;20033;-78
2022/03/07 04:48:44;;;;;;;23.90;13.97;;;;;;;-3.59;100.00;101856.78;5012034;28;20408;-78
2022/03/07 04:51:11;;;;;;;19.80;11.17;;;;;;;-3.56;100.00;101857.84;5027042;28;20040;-78
2022/03/07 04:53:37;;;;;;;20.70;10.97;;;;;;;-3.58;100.00;101853.41;5027539;28;20041;-76
2022/03/07 04:56:11;;;;;;;16.67;10.07;;;;;;;-3.66;100.00;101852.97;5010228;28;20041;-77
2022/03/07 04:58:38;;;;;;;18.53;10.17;;;;;;;-3.59;100.00;101851.63;5012978;28;20045;-77
2022/03/07 05:01:05;;;;;;;20.33;10.77;;;;;;;-3.49;100.00;101853.91;5022893;28;20452;-78
2022/03/07 05:03:31;;;;;;;18.83;9.90;;;;;;;-3.42;100.00;101848.28;4992825;28;20064;-78
2022/03/07 05:05:58;;;;;;;19.33;10.40;;;;;;;-3.34;100.00;101859.03;5016136;28;20040;-78
2022/03/07 05:08:25;;;;;;;25.80;11.77;;;;;;;-3.05;100.00;101864.06;5017101;28;20518;-77
2022/03/07 05:10:52;;;;;;;17.80;9.27;;;;;;;-3.14;100.00;101850.66;5026902;28;20053;-77
2022/03/07 05:13:18;;;;;;;17.27;9.10;;;;;;;-3.18;100.00;101853.91;5032029;28;20492;-78
2022/03/07 05:15:45;;;;;;;15.97;9.93;;;;;;;-3.09;100.00;101863.84;5015064;28;20061;-78
2022/03/07 05:18:14;;;;;;;18.03;10.20;;;;;;;-3.16;100.00;101860.91;4998735;28;20047;-78
2022/03/07 05:20:41;;;;;;;15.37;8.47;;;;;;;-3.12;100.00;101856.78;4996768;28;20048;-77
2022/03/07 05:23:22;;;;;;;17.10;8.80;;;;;;;-3.06;100.00;101864.00;5007006;28;20079;-78
2022/03/07 05:25:49;;;;;;;18.33;10.30;;;;;;;-2.98;100.00;101848.09;5030028;28;20071;-77
2022/03/07 05:28:16;;;;;;;18.63;10.70;;;;;;;-3.01;100.00;101854.81;5028826;28;20041;-77
2022/03/07 05:30:42;;;;;;;26.93;13.03;;;;;;;-2.89;100.00;101850.28;5024410;28;20052;-77
2022/03/07 05:33:09;;;;;;;25.97;13.27;;;;;;;-2.83;100.00;101855.78;5015678;28;20400;-77
2022/03/07 05:35:36;;;;;;;21.53;11.70;;;;;;;-2.73;100.00;101857.13;5014525;28;20045;-77
2022/03/07 05:38:04;;;;;;;24.60;13.10;;;;;;;-2.76;100.00;101846.66;5010210;28;20037;-78
2022/03/07 05:40:31;;;;;;;25.57;13.47;;;;;;;-2.71;100.00;101850.34;5002585;28;20049;-77
2022/03/07 05:42:57;;;;;;;27.63;14.80;;;;;;;-2.64;100.00;101855.91;5008138;28;20761;-79
2022/03/07 05:45:24;;;;;;;27.33;15.73;;;;;;;-2.64;100.00;101855.03;5042049;28;20086;-76
2022/03/07 05:47:51;;;;;;;23.33;13.33;;;;;;;-2.62;100.00;101850.81;5025205;28;20067;-78
2022/03/07 05:50:18;;;;;;;26.63;13.87;;;;;;;-2.54;100.00;101852.09;5021900;28;20037;-78
2022/03/07 05:52:44;;;;;;;30.80;15.37;;;;;;;-2.49;100.00;101853.25;5015928;28;20099;-77
2022/03/07 05:55:11;;;;;;;34.30;16.87;;;;;;;-2.42;100.00;101857.03;5028997;28;20033;-78
2022/03/07 05:57:38;;;;;;;23.43;12.30;;;;;;;-2.44;100.00;101849.16;5013332;28;20041;-78
2022/03/07 06:00:08;;;;;;;28.10;15.27;;;;;;;-2.38;100.00;101846.91;5033916;28;20037;-78
2022/03/07 06:02:34;;;;;;;28.47;15.27;;;;;;;-2.35;100.00;101851.38;5028572;28;20050;-77
2022/03/07 06:05:03;;;;;;;27.10;13.87;;;;;;;-2.26;100.00;101854.41;5031697;28;20061;-77
2022/03/07 06:07:30;;;;;;;27.27;14.77;;;;;;;-2.34;100.00;101860.91;5020156;28;20053;-77
2022/03/07 06:09:56;;;;;;;26.57;13.50;;;;;;;-2.24;100.00;101852.78;5016065;28;20579;-77
2022/03/07 06:12:26;;;;;;;30.37;14.27;;;;;;;-2.00;100.00;101861.78;5013979;28;20087;-78
2022/03/07 06:14:53;;;;;;;24.53;13.33;;;;;;;-2.09;100.00;101860.44;5015315;28;20144;-78
2022/03/07 06:17:21;;;;;;;23.23;13.03;;;;;;;-2.05;100.00;101867.53;5017466;28;20048;-77
2022/03/07 06:19:48;;;;;;;26.03;13.50;;;;;;;-2.04;100.00;101872.78;5010390;28;20072;-77
2022/03/07 06:22:15;;;;;;;26.33;14.43;;;;;;;-1.98;100.00;101875.69;5017550;28;20613;-77
2022/03/07 06:24:42;;;;;;;24.57;13.30;;;;;;;-1.89;100.00;101867.47;5021564;28;20104;-77
2022/03/07 06:27:08;;;;;;;23.83;12.70;;;;;;;-1.85;100.00;101873.69;5027855;28;20044;-77
2022/03/07 06:29:35;;;;;;;26.00;13.53;;;;;;;-1.95;100.00;101868.88;5017878;28;20508;-78
2022/03/07 06:32:02;;;;;;;26.73;14.10;;;;;;;-1.98;100.00;101869.63;5015010;28;20075;-79
2022/03/07 06:34:29;;;;;;;30.57;15.97;;;;;;;-2.02;100.00;101875.44;5014358;28;20497;-77
2022/03/07 06:36:55;;;;;;;30.03;14.77;;;;;;;-1.93;100.00;101881.09;5027652;28;20033;-77
2022/03/07 06:39:25;;;;;;;27.07;13.37;;;;;;;-1.89;100.00;101882.13;5034260;28;20041;-77
2022/03/07 06:41:53;;;;;;;32.20;14.93;;;;;;;-1.82;100.00;101892.88;5026218;28;20412;-77
2022/03/07 06:44:20;;;;;;;27.57;14.23;;;;;;;-1.77;100.00;101883.59;5037763;28;20033;-77
2022/03/07 06:46:47;;;;;;;28.33;15.47;;;;;;;-1.72;100.00;101878.66;5037798;28;20123;-78
2022/03/07 06:49:14;;;;;;;25.47;13.10;;;;;;;-1.74;100.00;101888.06;5058759;28;20037;-77
2022/03/07 06:51:41;;;;;;;30.17;15.60;;;;;;;-1.66;100.00;101883.25;5025562;28;20482;-77
2022/03/07 06:54:08;;;;;;;24.30;13.27;;;;;;;-1.57;100.00;101871.63;5045441;28;20032;-76
2022/03/07 06:56:36;;;;;;;23.30;14.07;;;;;;;-1.60;100.00;101883.53;5034599;28;20039;-77
2022/03/07 06:59:03;;;;;;;26.20;12.87;;;;;;;-1.49;100.00;101872.00;5021475;28;20048;-76
2022/03/07 07:01:30;;;;;;;27.30;16.87;;;;;;;-1.49;100.00;101879.78;5031197;28;20491;-76
2022/03/07 07:03:56;;;;;;;23.50;13.23;;;;;;;-1.41;100.00;101881.03;4994502;28;20132;-76
2022/03/07 07:06:23;;;;;;;24.50;15.80;;;;;;;-1.36;100.00;101883.81;5029219;28;20037;-76
2022/03/07 07:08:50;;;;;;;21.80;11.83;;;;;;;-1.34;100.00;101890.00;5016440;28;20049;-77
2022/03/07 07:11:17;;;;;;;24.87;12.53;;;;;;;-1.41;100.00;101886.22;5014021;28;20098;-77
2022/03/07 07:13:44;;;;;;;28.53;19.97;;;;;;;-1.27;100.00;101894.63;5034086;28;20045;-76
2022/03/07 07:16:10;;;;;;;32.53;21.87;;;;;;;-1.18;100.00;101897.63;5041160;28;20045;-78
2022/03/07 07:18:37;;;;;;;23.37;14.13;;;;;;;-1.23;100.00;101902.63;5016969;28;20045;-77
2022/03/07 07:21:04;;;;;;;21.87;11.27;;;;;;;-1.03;100.00;101897.47;5014940;28;20037;-77
2022/03/07 07:23:31;;;;;;;19.17;11.37;;;;;;;-1.06;100.00;101905.13;5032947;28;20904;-77
2022/03/07 07:25:57;;;;;;;26.43;12.87;;;;;;;-1.06;100.00;101902.53;5010038;28;20044;-77
2022/03/07 07:28:24;;;;;;;25.73;12.87;;;;;;;-1.05;100.00;101899.13;5028879;28;20045;-77
2022/03/07 07:30:51;;;;;;;18.27;9.87;;;;;;;-0.98;100.00;101901.19;5031817;28;20052;-77
2022/03/07 07:33:18;;;;;;;22.57;12.83;;;;;;;-0.91;100.00;101898.06;5021706;28;20037;-77
2022/03/07 07:35:45;;;;;;;20.10;10.77;;;;;;;-0.95;100.00;101899.59;5034981;28;20047;-76
2022/03/07 07:38:11;;;;;;;27.83;14.40;;;;;;;-0.85;100.00;101903.50;5015333;28;20450;-77
2022/03/07 07:40:39;;;;;;;18.97;10.80;;;;;;;-0.70;100.00;101898.13;5025617;28;20046;-79
2022/03/07 07:43:05;;;;;;;19.53;9.73;;;;;;;-0.63;100.00;101903.66;5002747;28;20037;-77
2022/03/07 07:45:32;;;;;;;20.07;10.77;;;;;;;-0.62;100.00;101899.34;5013821;28;20045;-77
2022/03/07 07:47:59;;;;;;;20.40;9.70;;;;;;;-0.53;100.00;101904.06;5010954;28;20038;-76
2022/03/07 07:50:27;;;;;;;18.47;10.40;;;;;;;-0.36;100.00;101895.31;5015281;28;20044;-77
2022/03/07 07:52:55;;;;;;;20.73;10.57;;;;;;;-0.34;100.00;101893.66;5027698;28;20107;-79
2022/03/07 07:55:25;;;;;;;18.33;10.03;;;;;;;-0.40;100.00;101902.09;5014131;28;20052;-78
2022/03/07 07:57:52;;;;;;;17.43;8.60;;;;;;;-0.08;100.00;101916.47;5017830;28;20051;-78
2022/03/07 08:00:20;;;;;;;16.20;9.20;;;;;;;-0.04;100.00;101917.47;4999797;28;20041;-79
2022/03/07 08:02:50;;;;;;;17.57;9.00;;;;;;;0.06;100.00;101909.25;5038148;28;20491;-80
2022/03/07 08:05:18;;;;;;;15.70;8.50;;;;;;;-0.07;100.00;101920.84;5004148;28;20037;-78
2022/03/07 08:07:45;;;;;;;16.20;8.77;;;;;;;-0.05;100.00;101928.69;5014781;28;20562;-77
2022/03/07 08:10:14;;;;;;;17.57;8.73;;;;;;;-0.12;100.00;101929.25;5031823;28;20047;-81
2022/03/07 08:12:41;;;;;;;14.30;8.10;;;;;;;-0.05;100.00;101920.91;5001678;28;20049;-80
2022/03/07 08:15:14;;;;;;;16.43;9.00;;;;;;;0.14;100.00;101926.03;5018862;28;20042;-79
2022/03/07 08:17:44;;;;;;;15.63;8.77;;;;;;;0.27;100.00;101923.16;5015749;28;20042;-78
2022/03/07 08:20:11;;;;;;;18.23;8.77;;;;;;;0.35;100.00;101919.97;5034415;28;20055;-79
2022/03/07 08:22:38;;;;;;;15.23;8.60;;;;;;;0.49;100.00;101927.50;5010817;28;20401;-79
2022/03/07 08:25:05;;;;;;;17.17;9.50;;;;;;;0.41;100.00;101913.28;5016473;28;20041;-79
2022/03/07 08:27:34;;;;;;;15.17;8.50;;;;;;;0.49;100.00;101917.09;5029613;28;20041;-77
2022/03/07 08:30:02;;;;;;;14.17;9.13;;;;;;;0.35;100.00;101912.19;5020758;28;20112;-78
2022/03/07 08:32:29;;;;;;;17.23;9.23;;;;;;;0.48;100.00;101909.22;5011551;28;20472;-78
2022/03/07 08:34:57;;;;;;;14.70;8.57;;;;;;;0.76;100.00;101913.84;5014663;28;20284;-78
2022/03/07 08:37:23;;;;;;;16.40;9.50;;;;;;;0.48;100.00;101904.91;5027669;28;20455;-78
2022/03/07 08:39:50;;;;;;;15.17;8.43;;;;;;;0.54;100.00;101912.97;5010958;28;20059;-76
2022/03/07 08:42:17;;;;;;;11.10;7.63;;;;;;;0.48;100.00;101923.13;5047904;28;20045;-76
2022/03/07 08:44:43;;;;;;;13.97;9.17;;;;;;;0.51;100.00;101919.78;5029561;28;20539;-76
2022/03/07 08:47:10;;;;;;;13.73;8.57;;;;;;;0.77;100.00;101920.81;5023395;28;20043;-77
2022/03/07 08:49:37;;;;;;;14.30;8.20;;;;;;;0.53;100.00;101924.22;5013423;28;20041;-77
2022/03/07 08:52:04;;;;;;;15.00;8.17;;;;;;;0.39;100.00;101914.94;5041516;28;20034;-77
2022/03/07 08:54:31;;;;;;;13.03;7.23;;;;;;;0.52;100.00;101906.84;5009444;28;20044;-75
2022/03/07 08:56:58;;;;;;;12.53;7.63;;;;;;;0.54;100.00;101905.19;5013113;28;20044;-75
2022/03/07 08:59:27;;;;;;;14.63;8.07;;;;;;;0.61;100.00;101914.13;5029460;28;20483;-77
2022/03/07 09:01:56;;;;;;;14.23;8.20;;;;;;;0.64;100.00;101905.53;5016047;28;20036;-76
2022/03/07 09:04:24;;;;;;;14.87;8.43;;;;;;;0.80;100.00;101915.72;5014178;28;20037;-77
2022/03/07 09:06:54;;;;;;;14.00;8.30;;;;;;;0.86;100.00;101910.78;4998468;28;20041;-76
2022/03/07 09:09:21;;;;;;;14.93;7.67;;;;;;;0.89;100.00;101903.06;5014635;28;20385;-76
2022/03/07 09:11:59;;;;;;;12.20;8.13;;;;;;;0.95;100.00;101905.91;5007812;28;20073;-78
2022/03/07 09:14:26;;;;;;;14.27;8.27;;;;;;;1.13;100.00;101909.22;5028152;28;20033;-78
2022/03/07 09:16:57;;;;;;;12.40;7.53;;;;;;;1.39;100.00;101906.69;5026952;28;20058;-78
2022/03/07 09:19:23;;;;;;;12.33;7.17;;;;;;;1.59;100.00;101907.41;5011856;28;20061;-75
2022/03/07 09:21:50;;;;;;;12.90;8.10;;;;;;;1.91;100.00;101898.13;5014814;28;20060;-78
2022/03/07 09:24:17;;;;;;;12.93;7.33;;;;;;;2.14;100.00;101902.41;5014774;28;20450;-77
2022/03/07 09:26:43;;;;;;;12.10;7.80;;;;;;;2.58;99.37;101897.75;5014066;28;20039;-78
2022/03/07 09:29:10;;;;;;;37.33;27.83;;;;;;;2.89;94.92;101896.09;5031658;28;20037;-78
2022/03/07 09:31:37;;;;;;;11.93;7.30;;;;;;;3.10;92.34;101908.06;5030452;28;20064;-78
2022/03/07 09:34:04;;;;;;;11.67;7.33;;;;;;;3.18;88.13;101900.47;5011641;28;20515;-78
2022/03/07 09:36:31;;;;;;;11.37;6.90;;;;;;;3.47;87.00;101900.44;4995160;28;20424;-78
2022/03/07 09:38:58;;;;;;;12.20;6.47;;;;;;;3.57;83.61;101895.50;5016136;28;20075;-77
2022/03/07 09:41:27;;;;;;;9.57;5.93;;;;;;;3.55;82.29;101893.69;5026483;28;20045;-78
2022/03/07 09:43:54;;;;;;;8.97;6.27;;;;;;;3.78;81.73;101902.13;5010122;28;20045;-76
2022/03/07 09:46:21;;;;;;;20.83;10.50;;;;;;;4.08;82.78;101894.22;5029030;28;20196;-77
2022/03/07 09:48:48;;;;;;;27.57;13.60;;;;;;;4.35;82.89;101888.81;5025700;28;20071;-79
2022/03/07 09:51:14;;;;;;;21.57;9.10;;;;;;;4.62;80.64;101888.56;5008967;28;20041;-78
2022/03/07 09:53:41;;;;;;;19.00;8.87;;;;;;;4.89;78.83;101888.34;5011939;28;20057;-76
2022/03/07 09:56:08;;;;;;;18.93;9.47;;;;;;;5.06;79.29;101882.63;5044097;28;20057;-78
2022/03/07 09:58:37;;;;;;;21.90;10.87;;;;;;;5.35;74.57;101884.97;5008096;28;20041;-79
2022/03/07 10:01:19;;;;;;;10.47;5.60;;;;;;;5.39;70.82;101884.19;5023504;28;20183;-77
2022/03/07 10:03:53;;;;;;;8.97;5.10;;;;;;;5.15;68.99;101886.28;5015711;28;20041;-79
2022/03/07 10:06:19;;;;;;;10.40;5.90;;;;;;;5.47;68.27;101879.97;5028705;28;20052;-77
2022/03/07 10:08:54;;;;;;;11.30;6.63;;;;;;;5.79;69.88;101877.06;4988600;28;20042;-78
2022/03/07 10:11:21;;;;;;;9.40;5.73;;;;;;;5.93;65.50;101881.75;4995699;28;20136;-78
2022/03/07 10:13:53;;;;;;;7.00;4.63;;;;;;;5.77;63.87;101886.66;5011039;28;20072;-78
2022/03/07 10:16:20;;;;;;;9.37;5.70;;;;;;;6.16;65.84;101891.78;5026246;28;20037;-78
2022/03/07 10:18:53;;;;;;;7.17;4.80;;;;;;;6.30;62.39;101892.00;4994100;28;20522;-78
2022/03/07 10:21:24;;;;;;;26.10;10.87;;;;;;;6.66;63.18;101878.59;5004579;28;20071;-78
2022/03/07 10:23:56;;;;;;;15.40;8.20;;;;;;;6.80;59.85;101871.78;5025947;28;20052;-78
2022/03/07 10:26:23;;;;;;;6.87;4.37;;;;;;;6.83;58.14;101876.22;5019072;28;20107;-77
2022/03/07 10:28:54;;;;;;;6.63;4.00;;;;;;;6.94;58.13;101888.63;5013192;28;20047;-76
2022/03/07 10:31:33;;;;;;;6.83;3.93;;;;;;;7.10;59.00;101894.97;5009995;28;20095;-77
2022/03/07 10:34:18;;;;;;;6.17;3.83;;;;;;;7.02;58.46;101878.22;5015325;28;20068;-77
2022/03/07 10:36:46;;;;;;;6.07;4.07;;;;;;;6.80;56.34;101884.91;5003553;28;20049;-77
2022/03/07 10:39:17;;;;;;;7.70;4.53;;;;;;;6.83;55.32;101879.72;4998020;28;21029;-77
2022/03/07 10:41:46;;;;;;;5.77;3.93;;;;;;;6.65;56.60;101871.56;5009420;28;20612;-77
2022/03/07 10:44:30;;;;;;;6.90;3.90;;;;;;;6.76;56.16;101876.13;5027598;28;20046;-77
2022/03/07 10:47:15;;;;;;;6.72;4.57;;;;;;;7.03;56.60;101878.25;5018641;28;20123;-78
2022/03/07 10:49:59;;;;;;;7.40;3.87;;;;;;;7.30;56.34;101877.72;4999795;28;20049;-78
2022/03/07 10:52:38;;;;;;;7.00;4.05;;;;;;;7.10;54.57;101873.94;5050059;28;20044;-78
2022/03/07 10:55:06;;;;;;;9.03;5.33;;;;;;;7.16;54.91;101865.28;5036545;28;20056;-78
2022/03/07 10:57:41;;;;;;;5.33;3.37;;;;;;;7.22;55.74;101871.47;5013428;28;20107;-77
2022/03/07 11:00:13;;;;;;;6.05;3.63;;;;;;;7.18;55.13;101868.81;5031252;28;20144;-77
2022/03/07 11:02:42;;;;;;;4.80;3.33;;;;;;;7.28;52.16;101868.94;5012847;28;20049;-77
2022/03/07 11:05:10;;;;;;;3.73;2.67;;;;;;;7.66;51.96;101865.00;5031390;28;20033;-78
2022/03/07 11:07:38;;;;;;;4.60;2.70;;;;;;;7.92;53.37;101862.63;5049508;28;20036;-77
2022/03/07 11:10:06;;;;;;;8.47;4.53;;;;;;;8.02;50.25;101860.09;5014155;28;20455;-77
2022/03/07 11:12:33;;;;;;;5.87;4.63;;;;;;;8.14;48.89;101861.94;5033296;28;20400;-77
2022/03/07 11:15:08;;;;;;;6.67;3.23;;;;;;;8.01;50.84;101863.59;5013625;28;20045;-77
2022/03/07 11:17:43;;;;;;;6.13;4.03;;;;;;;8.04;50.49;101862.72;5009059;28;20072;-78